FW3058 Fairhope AL US current weather conditions

sailwx.info

Wind from 113 at 2 knots gusting 6

Air temperature 22.2° C
Dewpoint 17.1° C

Last reported at 2019-Dec-15 21:02 UTC.
Time now 2019-Dec-15 21:25 UTC

Location: N 30°33' W 087°53'.
View on Google Maps.

See reports from other nearby stations

  
Tides and Currents Weather Stations Pressure Air Temp Water Temp Dewpoint Dewpoint Depression Visibility Wind Speed Wind Dir Waves Ship Positions
date/time (UTC)wind fromknots sea level pressurealtimeterstation pressurevisibilityair tempwater tempwave heightnotes
2019-Dec-15 21:02 113 2 gusting 6 22.2
2019-Dec-15 20:46 088 1 gusting 5 23.3
2019-Dec-15 20:31 205 2 gusting 6 23.3
2019-Dec-15 20:17 103 3 gusting 7 23.9
2019-Dec-15 20:01 218 2 gusting 7 23.9
2019-Dec-15 19:47 173 2 gusting 6 23.9
2019-Dec-15 19:31 213 2 gusting 5 23.9
2019-Dec-15 19:17 173 2 gusting 6 23.9
2019-Dec-15 19:01 191 3 gusting 7 22.8
2019-Dec-15 18:46 218 2 gusting 7 23.9
2019-Dec-15 18:31 198 2 gusting 6 23.3
2019-Dec-15 18:18 213 2 gusting 5 23.3
2019-Dec-15 18:01 211 3 gusting 8 23.3
2019-Dec-15 17:46 186 2 gusting 11 23.3
2019-Dec-15 17:31 161 3 gusting 6 23.3
2019-Dec-15 17:16 208 3 gusting 7 23.3
2019-Dec-15 17:00 190 1 gusting 6 22.8
2019-Dec-15 16:46 157 2 gusting 6 21.7
2019-Dec-15 16:30 194 0 gusting 4 21.7
2019-Dec-15 16:16 207 20.6
2019-Dec-15 16:00 163 1 gusting 4 20.0
2019-Dec-15 15:46 137 0 gusting 3 18.3
2019-Dec-15 15:30 056 0 gusting 4 17.2
2019-Dec-15 15:15 127 0 gusting 3 16.1
2019-Dec-15 15:02 068 1 gusting 4 15.6
2019-Dec-15 14:47 059 14.4
2019-Dec-15 14:32 042 0 gusting 2 12.8
2019-Dec-15 14:16 064 0 gusting 2 12.2
2019-Dec-15 14:01 055 0 gusting 2 11.1
2019-Dec-15 13:46 073 0 gusting 3 10.6
2019-Dec-15 13:31 055 0 gusting 2 10.0
2019-Dec-15 13:16 052 0 gusting 2 10.0
2019-Dec-15 13:01 049 9.4
2019-Dec-15 12:47 046 9.4
2019-Dec-15 12:31 046 9.4
2019-Dec-15 12:15 048 8.9
2019-Dec-15 12:00 048 9.4
2019-Dec-15 11:46 048 8.9
2019-Dec-15 11:31 047 8.9
2019-Dec-15 11:15 061 8.9
2019-Dec-15 11:01 062 8.9
2019-Dec-15 10:45 061 8.9
2019-Dec-15 10:30 061 9.4
2019-Dec-15 10:15 061 9.4
2019-Dec-15 10:01 061 0 gusting 2 9.4
2019-Dec-15 09:45 097 0 gusting 1 8.9
2019-Dec-15 09:30 097 8.9
2019-Dec-15 09:15 097 8.3
2019-Dec-15 09:00 097 8.3
2019-Dec-15 08:45 097 8.9
2019-Dec-15 08:30 097 8.9
2019-Dec-15 08:15 097 8.9
2019-Dec-15 08:00 097 8.9
2019-Dec-15 07:45 097 8.9
2019-Dec-15 07:33 097 9.4
2019-Dec-15 07:16 097 9.4
2019-Dec-15 07:02 097 9.4
2019-Dec-15 06:48 097 9.4
2019-Dec-15 06:32 097 9.4
2019-Dec-15 06:17 097 9.4
2019-Dec-15 06:04 097 9.4
2019-Dec-15 05:46 097 8.9
2019-Dec-15 05:33 097 8.9
2019-Dec-15 05:17 097 8.9
2019-Dec-15 05:01 097 8.3
2019-Dec-15 04:47 097 8.9
2019-Dec-15 04:31 097 8.9
2019-Dec-15 04:17 097 8.9
2019-Dec-15 04:02 097 8.9
2019-Dec-15 03:47 097 9.4
2019-Dec-15 03:33 097 9.4
2019-Dec-15 03:16 097 9.4
2019-Dec-15 03:01 097 0 gusting 1 10.0
2019-Dec-15 02:46 097 10.0
2019-Dec-15 02:31 097 10.6
2019-Dec-15 02:17 097 10.6
2019-Dec-15 02:02 097 10.6
2019-Dec-15 01:46 097 10.6
2019-Dec-15 01:31 229 10.6
2019-Dec-15 01:17 229 10.6
2019-Dec-15 01:01 229 11.1
2019-Dec-15 00:46 229 11.1
2019-Dec-15 00:30 229 11.1
2019-Dec-15 00:16 229 11.7
2019-Dec-15 00:01 229 11.7
2019-Dec-14 23:45 229 12.2
2019-Dec-14 23:31 229 12.8
2019-Dec-14 23:15 229 13.3
2019-Dec-14 23:01 229 13.3
2019-Dec-14 22:46 229 13.3
2019-Dec-14 22:30 229 13.9
2019-Dec-14 22:15 229 13.9
2019-Dec-14 22:01 237 0 gusting 3 13.9
2019-Dec-14 21:46 227 1 gusting 6 13.9
2019-Dec-14 21:30 245 14.4
2019-Dec-14 21:01 218 0 gusting 3 14.4
2019-Dec-14 20:45 271 0 gusting 4 15.0
2019-Dec-14 20:31 289 16.1
2019-Dec-14 20:16 304 0 gusting 2 16.1
2019-Dec-14 20:01 309 0 gusting 3 16.1
2019-Dec-14 19:45 315 0 gusting 2 16.1
2019-Dec-14 19:30 294 0 gusting 2 16.1
2019-Dec-14 19:15 243 0 gusting 3 15.6
2019-Dec-14 19:00 309 15.6
2019-Dec-14 18:45 311 15.0
2019-Dec-14 18:30 273 0 gusting 4 13.9
2019-Dec-14 18:15 327 0 gusting 3 13.9
2019-Dec-14 18:00 274 0 gusting 3 13.3
2019-Dec-14 17:45 265 0 gusting 3 13.3
2019-Dec-14 17:32 276 0 gusting 4 13.3
2019-Dec-14 17:18 278 0 gusting 4 13.3
2019-Dec-14 17:01 272 0 gusting 3 12.8
2019-Dec-14 16:48 290 0 gusting 3 12.8
2019-Dec-14 16:32 252 1 gusting 6 12.2
2019-Dec-14 16:17 232 0 gusting 6 12.2
2019-Dec-14 16:01 029 0 gusting 3 12.8
2019-Dec-14 15:47 097 0 gusting 3 12.2
2019-Dec-14 15:32 275 0 gusting 3 12.2
2019-Dec-14 15:16 284 0 gusting 4 11.7
2019-Dec-14 15:01 303 0 gusting 3 12.2
2019-Dec-14 14:47 163 11.7
2019-Dec-14 14:31 119 0 gusting 2 10.6
2019-Dec-14 14:16 072 0 gusting 2 10.0
2019-Dec-14 14:01 012 9.4
2019-Dec-14 13:45 012 8.9
2019-Dec-14 13:30 012 8.3
2019-Dec-14 13:15 012 8.3
2019-Dec-14 13:00 012 8.9
2019-Dec-14 12:45 012 8.9
2019-Dec-14 12:15 015 8.9
2019-Dec-14 12:00 005 0 gusting 3 9.4
2019-Dec-14 11:45 032 1 gusting 4 9.4
2019-Dec-14 11:34 348 0 gusting 3 9.4
2019-Dec-14 11:17 355 0 gusting 2 9.4
2019-Dec-14 11:02 340 9.4
2019-Dec-14 10:46 329 9.4
2019-Dec-14 10:32 028 1 gusting 4 9.4
2019-Dec-14 10:17 005 0 gusting 2 9.4
2019-Dec-14 10:01 337 0 gusting 5 9.4
2019-Dec-14 09:46 037 0 gusting 5 10.0
2019-Dec-14 09:31 277 0 gusting 3 10.0
2019-Dec-14 09:02 297 0 gusting 5 10.0
2019-Dec-14 08:46 360 10.0
2019-Dec-14 08:31 040 0 gusting 6 10.0
2019-Dec-14 08:17 327 0 gusting 4 10.0
2019-Dec-14 08:01 022 0 gusting 4 10.0
2019-Dec-14 07:46 325 10.6
2019-Dec-14 07:31 340 0 gusting 2 10.6
2019-Dec-14 07:15 009 10.6
2019-Dec-14 07:00 026 10.6
2019-Dec-14 06:45 005 0 gusting 3 10.6
2019-Dec-14 06:30 355 0 gusting 3 10.6
2019-Dec-14 06:15 351 10.6
2019-Dec-14 06:00 294 0 gusting 3 10.6
2019-Dec-14 05:45 344 0 gusting 3 10.6
2019-Dec-14 05:30 283 10.6
2019-Dec-14 05:15 286 10.6
2019-Dec-14 05:00 290 0 gusting 2 10.6
2019-Dec-14 04:45 349 10.6
2019-Dec-14 04:30 349 10.6
2019-Dec-14 04:15 349 11.1
2019-Dec-14 04:00 349 11.1
2019-Dec-14 03:45 360 0 gusting 2 11.1
2019-Dec-14 03:30 028 0 gusting 2 11.1
2019-Dec-14 03:15 005 0 gusting 3 11.1
2019-Dec-14 03:00 355 11.1
2019-Dec-14 02:45 355 11.1
2019-Dec-14 02:30 355 11.1
2019-Dec-14 02:15 355 11.1
2019-Dec-14 02:00 355 11.1
2019-Dec-14 01:45 009 0 gusting 2 11.1
2019-Dec-14 01:33 061 1 gusting 4 11.1
2019-Dec-14 01:18 055 1 gusting 3 11.1
2019-Dec-14 01:02 005 0 gusting 2 11.1
2019-Dec-14 00:47 017 0 gusting 4 11.1
2019-Dec-14 00:33 054 1 gusting 6 11.1
2019-Dec-14 00:17 062 1 gusting 5 11.1
2019-Dec-14 00:02 337 0 gusting 3 11.1
2019-Dec-13 23:47 360 1 gusting 4 11.1
2019-Dec-13 23:32 040 1 gusting 5 11.1
2019-Dec-13 23:17 049 0 gusting 3 11.1
2019-Dec-13 23:01 011 1 gusting 5 11.1
2019-Dec-13 22:47 039 0 gusting 4 11.1
2019-Dec-13 22:32 294 1 gusting 5 11.1
2019-Dec-13 22:17 288 1 gusting 5 11.1
2019-Dec-13 22:02 338 4 gusting 8 11.7
2019-Dec-13 21:46 329 0 gusting 4 12.8
2019-Dec-13 21:33 038 2 gusting 5 12.8
2019-Dec-13 21:18 034 0 gusting 4 13.3
2019-Dec-13 21:01 044 1 gusting 5 13.3